Terminal Aerodrome Forecast
Issued by NWS

Home | Current Version | Previous Version | Text Only | Print | Product List | Glossary On
Versions: 1 2 3 4 5 6 7 8 9 10 11 12 13 14 15 16 17 18 19 20 21 22 23 24 25 26 27 28 29 30
000
FTUS43 KGRB 200500
TAFCWA
TAF
KCWA 200520Z 2006/2106 31004KT 6SM BR SCT015 SCT060
      TEMPO 2006/2008 1 1/2SM BR BKN005
     FM200800 32003KT 1/2SM FG BKN003
     FM201400 32005KT 3SM BR BKN012
     FM201700 30005KT P6SM BKN030
     FM202100 VRB03KT P6SM SCT035
      TEMPO 2105/2106 4SM BR
      AMD LTD TO CLD VIS AND WIND TIL 201200=

USA.gov is the U.S. government's official web portal to all federal, state and local government web resources and services.